sensor_id;sensor_type;location;lat;lon;timestamp;P1;durP1;ratioP1;P2;durP2;ratioP2
68250;SDS011;55066;51.560;4.642;2022-12-07T00:00:53;6.78;;;2.50;;
68250;SDS011;55066;51.560;4.642;2022-12-07T00:03:20;9.80;;;3.00;;
68250;SDS011;55066;51.560;4.642;2022-12-07T00:05:48;8.07;;;2.67;;
68250;SDS011;55066;51.560;4.642;2022-12-07T00:08:14;8.27;;;2.78;;
68250;SDS011;55066;51.560;4.642;2022-12-07T00:10:39;6.93;;;2.83;;
68250;SDS011;55066;51.560;4.642;2022-12-07T00:13:04;10.63;;;2.90;;
68250;SDS011;55066;51.560;4.642;2022-12-07T00:15:30;10.30;;;2.93;;
68250;SDS011;55066;51.560;4.642;2022-12-07T00:17:55;9.13;;;3.00;;
68250;SDS011;55066;51.560;4.642;2022-12-07T00:20:26;9.20;;;2.97;;
68250;SDS011;55066;51.560;4.642;2022-12-07T00:22:51;8.15;;;2.60;;
68250;SDS011;55066;51.560;4.642;2022-12-07T00:25:17;7.03;;;2.90;;
68250;SDS011;55066;51.560;4.642;2022-12-07T00:27:42;6.80;;;2.53;;
68250;SDS011;55066;51.560;4.642;2022-12-07T00:30:08;11.57;;;2.60;;
68250;SDS011;55066;51.560;4.642;2022-12-07T00:32:34;9.98;;;2.47;;
68250;SDS011;55066;51.560;4.642;2022-12-07T00:34:59;7.30;;;2.43;;
68250;SDS011;55066;51.560;4.642;2022-12-07T00:37:27;7.43;;;2.50;;
68250;SDS011;55066;51.560;4.642;2022-12-07T00:39:53;8.13;;;2.50;;
68250;SDS011;55066;51.560;4.642;2022-12-07T00:42:21;7.60;;;2.67;;
68250;SDS011;55066;51.560;4.642;2022-12-07T00:44:48;9.00;;;3.00;;
68250;SDS011;55066;51.560;4.642;2022-12-07T00:47:14;5.80;;;2.77;;
68250;SDS011;55066;51.560;4.642;2022-12-07T00:49:45;7.05;;;2.83;;
68250;SDS011;55066;51.560;4.642;2022-12-07T00:52:10;9.35;;;2.95;;
68250;SDS011;55066;51.560;4.642;2022-12-07T00:54:36;13.40;;;3.47;;
68250;SDS011;55066;51.560;4.642;2022-12-07T00:57:01;11.57;;;2.73;;
68250;SDS011;55066;51.560;4.642;2022-12-07T00:59:26;6.67;;;2.43;;
68250;SDS011;55066;51.560;4.642;2022-12-07T01:01:58;11.90;;;3.00;;
68250;SDS011;55066;51.560;4.642;2022-12-07T01:04:23;9.27;;;2.80;;
68250;SDS011;55066;51.560;4.642;2022-12-07T01:06:48;11.83;;;3.00;;
68250;SDS011;55066;51.560;4.642;2022-12-07T01:09:14;8.65;;;3.22;;
68250;SDS011;55066;51.560;4.642;2022-12-07T01:11:39;9.90;;;2.67;;
68250;SDS011;55066;51.560;4.642;2022-12-07T01:14:05;9.03;;;2.47;;
68250;SDS011;55066;51.560;4.642;2022-12-07T01:16:34;8.93;;;3.03;;
68250;SDS011;55066;51.560;4.642;2022-12-07T01:19:09;7.72;;;2.80;;
68250;SDS011;55066;51.560;4.642;2022-12-07T01:21:35;9.33;;;2.80;;
68250;SDS011;55066;51.560;4.642;2022-12-07T01:24:03;9.65;;;2.88;;
68250;SDS011;55066;51.560;4.642;2022-12-07T01:26:29;11.02;;;2.88;;
68250;SDS011;55066;51.560;4.642;2022-12-07T01:28:55;7.80;;;2.65;;
68250;SDS011;55066;51.560;4.642;2022-12-07T01:31:23;11.50;;;2.85;;
68250;SDS011;55066;51.560;4.642;2022-12-07T01:33:54;10.65;;;3.10;;
68250;SDS011;55066;51.560;4.642;2022-12-07T01:36:31;7.07;;;2.67;;
68250;SDS011;55066;51.560;4.642;2022-12-07T01:39:00;10.90;;;3.13;;
68250;SDS011;55066;51.560;4.642;2022-12-07T01:41:28;12.13;;;3.03;;
68250;SDS011;55066;51.560;4.642;2022-12-07T01:49:34;8.02;;;2.97;;
68250;SDS011;55066;51.560;4.642;2022-12-07T01:54:48;7.57;;;2.43;;
68250;SDS011;55066;51.560;4.642;2022-12-07T01:57:27;5.20;;;2.20;;
68250;SDS011;55066;51.560;4.642;2022-12-07T01:59:54;6.18;;;2.70;;
68250;SDS011;55066;51.560;4.642;2022-12-07T02:02:31;9.45;;;2.90;;
68250;SDS011;55066;51.560;4.642;2022-12-07T02:05:16;6.68;;;2.45;;
68250;SDS011;55066;51.560;4.642;2022-12-07T02:07:42;6.50;;;2.33;;
68250;SDS011;55066;51.560;4.642;2022-12-07T02:10:19;7.55;;;2.83;;
68250;SDS011;55066;51.560;4.642;2022-12-07T02:13:12;10.98;;;2.75;;
68250;SDS011;55066;51.560;4.642;2022-12-07T02:18:48;7.57;;;2.90;;
68250;SDS011;55066;51.560;4.642;2022-12-07T02:32:24;7.07;;;3.03;;
68250;SDS011;55066;51.560;4.642;2022-12-07T02:35:19;6.10;;;2.63;;
68250;SDS011;55066;51.560;4.642;2022-12-07T02:40:25;7.38;;;2.80;;
68250;SDS011;55066;51.560;4.642;2022-12-07T02:42:58;7.97;;;2.65;;
68250;SDS011;55066;51.560;4.642;2022-12-07T02:45:33;10.35;;;2.70;;
68250;SDS011;55066;51.560;4.642;2022-12-07T02:48:16;9.40;;;2.50;;
68250;SDS011;55066;51.560;4.642;2022-12-07T02:50:44;6.90;;;2.22;;
68250;SDS011;55066;51.560;4.642;2022-12-07T02:55:54;10.05;;;2.85;;
68250;SDS011;55066;51.560;4.642;2022-12-07T03:01:17;11.33;;;3.50;;
68250;SDS011;55066;51.560;4.642;2022-12-07T03:04:02;8.63;;;3.28;;
68250;SDS011;55066;51.560;4.642;2022-12-07T03:06:47;10.35;;;3.17;;
68250;SDS011;55066;51.560;4.642;2022-12-07T03:09:25;7.55;;;3.22;;
68250;SDS011;55066;51.560;4.642;2022-12-07T03:12:32;11.65;;;3.45;;
68250;SDS011;55066;51.560;4.642;2022-12-07T03:15:07;11.83;;;3.63;;
68250;SDS011;55066;51.560;4.642;2022-12-07T03:17:38;8.18;;;3.20;;
68250;SDS011;55066;51.560;4.642;2022-12-07T03:20:10;11.73;;;3.92;;
68250;SDS011;55066;51.560;4.642;2022-12-07T03:22:38;10.68;;;3.30;;
68250;SDS011;55066;51.560;4.642;2022-12-07T03:25:09;9.52;;;3.42;;
68250;SDS011;55066;51.560;4.642;2022-12-07T03:27:41;8.37;;;2.90;;
68250;SDS011;55066;51.560;4.642;2022-12-07T03:30:29;9.80;;;2.95;;
68250;SDS011;55066;51.560;4.642;2022-12-07T03:33:35;7.97;;;2.65;;
68250;SDS011;55066;51.560;4.642;2022-12-07T03:38:44;8.50;;;2.60;;
68250;SDS011;55066;51.560;4.642;2022-12-07T03:41:23;9.80;;;2.57;;
68250;SDS011;55066;51.560;4.642;2022-12-07T03:43:52;9.32;;;2.70;;
68250;SDS011;55066;51.560;4.642;2022-12-07T03:52:08;10.75;;;3.10;;
68250;SDS011;55066;51.560;4.642;2022-12-07T03:54:47;7.93;;;3.10;;
68250;SDS011;55066;51.560;4.642;2022-12-07T03:57:21;11.00;;;3.03;;
68250;SDS011;55066;51.560;4.642;2022-12-07T03:59:48;7.45;;;2.92;;
68250;SDS011;55066;51.560;4.642;2022-12-07T04:02:16;7.65;;;3.25;;
68250;SDS011;55066;51.560;4.642;2022-12-07T04:04:44;11.05;;;3.30;;
68250;SDS011;55066;51.560;4.642;2022-12-07T04:07:09;11.30;;;2.90;;
68250;SDS011;55066;51.560;4.642;2022-12-07T04:09:35;7.68;;;3.10;;
68250;SDS011;55066;51.560;4.642;2022-12-07T04:12:01;6.90;;;2.67;;
68250;SDS011;55066;51.560;4.642;2022-12-07T04:14:26;7.53;;;3.10;;
68250;SDS011;55066;51.560;4.642;2022-12-07T04:16:53;8.53;;;3.00;;
68250;SDS011;55066;51.560;4.642;2022-12-07T04:19:24;7.90;;;2.92;;
68250;SDS011;55066;51.560;4.642;2022-12-07T04:21:51;10.65;;;3.28;;
68250;SDS011;55066;51.560;4.642;2022-12-07T04:24:17;9.37;;;2.83;;
68250;SDS011;55066;51.560;4.642;2022-12-07T04:26:43;7.28;;;2.70;;
68250;SDS011;55066;51.560;4.642;2022-12-07T04:29:12;8.60;;;2.83;;
68250;SDS011;55066;51.560;4.642;2022-12-07T04:31:39;9.40;;;2.93;;
68250;SDS011;55066;51.560;4.642;2022-12-07T04:34:04;6.57;;;2.90;;
68250;SDS011;55066;51.560;4.642;2022-12-07T04:36:31;8.63;;;2.80;;
68250;SDS011;55066;51.560;4.642;2022-12-07T04:38:57;6.43;;;2.80;;
68250;SDS011;55066;51.560;4.642;2022-12-07T04:41:23;5.80;;;2.53;;
68250;SDS011;55066;51.560;4.642;2022-12-07T04:43:56;6.28;;;2.47;;
68250;SDS011;55066;51.560;4.642;2022-12-07T04:46:23;7.65;;;2.78;;
68250;SDS011;55066;51.560;4.642;2022-12-07T04:48:57;6.70;;;2.70;;
68250;SDS011;55066;51.560;4.642;2022-12-07T04:51:24;7.57;;;2.63;;
68250;SDS011;55066;51.560;4.642;2022-12-07T04:53:51;12.32;;;3.10;;
68250;SDS011;55066;51.560;4.642;2022-12-07T04:56:23;6.93;;;2.80;;
68250;SDS011;55066;51.560;4.642;2022-12-07T04:58:53;7.60;;;3.10;;
68250;SDS011;55066;51.560;4.642;2022-12-07T05:01:19;7.95;;;2.80;;
68250;SDS011;55066;51.560;4.642;2022-12-07T05:03:46;6.40;;;2.60;;
68250;SDS011;55066;51.560;4.642;2022-12-07T05:06:17;7.88;;;3.00;;
68250;SDS011;55066;51.560;4.642;2022-12-07T05:08:43;9.77;;;2.70;;
68250;SDS011;55066;51.560;4.642;2022-12-07T05:11:09;7.72;;;2.65;;
68250;SDS011;55066;51.560;4.642;2022-12-07T05:13:57;5.80;;;2.47;;
68250;SDS011;55066;51.560;4.642;2022-12-07T05:16:23;6.63;;;2.53;;
68250;SDS011;55066;51.560;4.642;2022-12-07T05:18:48;8.18;;;2.70;;
68250;SDS011;55066;51.560;4.642;2022-12-07T05:21:20;8.97;;;2.67;;
68250;SDS011;55066;51.560;4.642;2022-12-07T05:23:45;9.93;;;2.92;;
68250;SDS011;55066;51.560;4.642;2022-12-07T05:26:11;9.87;;;2.73;;
68250;SDS011;55066;51.560;4.642;2022-12-07T05:28:37;8.93;;;2.80;;
68250;SDS011;55066;51.560;4.642;2022-12-07T05:31:05;8.48;;;2.80;;
68250;SDS011;55066;51.560;4.642;2022-12-07T05:33:30;8.30;;;2.70;;
68250;SDS011;55066;51.560;4.642;2022-12-07T05:35:56;6.17;;;2.60;;
68250;SDS011;55066;51.560;4.642;2022-12-07T05:38:31;10.65;;;2.50;;
68250;SDS011;55066;51.560;4.642;2022-12-07T05:41:04;8.60;;;2.57;;
68250;SDS011;55066;51.560;4.642;2022-12-07T05:43:33;10.88;;;2.55;;
68250;SDS011;55066;51.560;4.642;2022-12-07T05:45:59;5.28;;;2.40;;
68250;SDS011;55066;51.560;4.642;2022-12-07T05:48:25;8.37;;;2.50;;
68250;SDS011;55066;51.560;4.642;2022-12-07T05:50:51;7.25;;;2.20;;
68250;SDS011;55066;51.560;4.642;2022-12-07T05:53:17;10.02;;;2.38;;
68250;SDS011;55066;51.560;4.642;2022-12-07T05:55:43;5.18;;;2.15;;
68250;SDS011;55066;51.560;4.642;2022-12-07T05:58:09;8.90;;;2.43;;
68250;SDS011;55066;51.560;4.642;2022-12-07T06:00:56;5.65;;;2.20;;
68250;SDS011;55066;51.560;4.642;2022-12-07T06:03:24;5.00;;;2.40;;
68250;SDS011;55066;51.560;4.642;2022-12-07T06:05:51;7.27;;;2.27;;
68250;SDS011;55066;51.560;4.642;2022-12-07T06:08:17;6.30;;;2.15;;
68250;SDS011;55066;51.560;4.642;2022-12-07T06:10:42;6.40;;;2.17;;
68250;SDS011;55066;51.560;4.642;2022-12-07T06:13:11;7.55;;;2.05;;
68250;SDS011;55066;51.560;4.642;2022-12-07T06:15:37;9.47;;;2.23;;
68250;SDS011;55066;51.560;4.642;2022-12-07T06:18:05;6.55;;;2.15;;
68250;SDS011;55066;51.560;4.642;2022-12-07T06:20:31;6.60;;;1.93;;
68250;SDS011;55066;51.560;4.642;2022-12-07T06:22:56;5.10;;;1.80;;
68250;SDS011;55066;51.560;4.642;2022-12-07T06:25:25;6.43;;;2.33;;
68250;SDS011;55066;51.560;4.642;2022-12-07T06:27:50;8.40;;;2.20;;
68250;SDS011;55066;51.560;4.642;2022-12-07T06:30:23;5.80;;;2.30;;
68250;SDS011;55066;51.560;4.642;2022-12-07T06:32:48;8.73;;;2.10;;
68250;SDS011;55066;51.560;4.642;2022-12-07T06:35:14;6.70;;;2.20;;
68250;SDS011;55066;51.560;4.642;2022-12-07T06:37:40;5.38;;;2.05;;
68250;SDS011;55066;51.560;4.642;2022-12-07T06:40:06;5.10;;;2.33;;
68250;SDS011;55066;51.560;4.642;2022-12-07T06:42:32;9.73;;;2.53;;
68250;SDS011;55066;51.560;4.642;2022-12-07T06:45:00;12.73;;;2.50;;
68250;SDS011;55066;51.560;4.642;2022-12-07T06:47:26;11.25;;;2.28;;
68250;SDS011;55066;51.560;4.642;2022-12-07T06:49:51;7.53;;;2.43;;
68250;SDS011;55066;51.560;4.642;2022-12-07T06:52:19;9.60;;;2.28;;
68250;SDS011;55066;51.560;4.642;2022-12-07T06:54:45;9.93;;;2.47;;
68250;SDS011;55066;51.560;4.642;2022-12-07T06:57:10;5.95;;;2.10;;
68250;SDS011;55066;51.560;4.642;2022-12-07T06:59:36;10.47;;;2.20;;
68250;SDS011;55066;51.560;4.642;2022-12-07T07:02:01;12.57;;;2.17;;
68250;SDS011;55066;51.560;4.642;2022-12-07T07:04:27;7.67;;;2.00;;
68250;SDS011;55066;51.560;4.642;2022-12-07T07:06:52;9.33;;;2.47;;
68250;SDS011;55066;51.560;4.642;2022-12-07T07:09:18;6.53;;;1.80;;
68250;SDS011;55066;51.560;4.642;2022-12-07T07:11:43;6.40;;;1.90;;
68250;SDS011;55066;51.560;4.642;2022-12-07T07:14:08;6.20;;;1.83;;
68250;SDS011;55066;51.560;4.642;2022-12-07T07:16:34;6.03;;;1.83;;
68250;SDS011;55066;51.560;4.642;2022-12-07T07:18:59;6.63;;;1.88;;
68250;SDS011;55066;51.560;4.642;2022-12-07T07:21:25;7.43;;;1.90;;
68250;SDS011;55066;51.560;4.642;2022-12-07T07:23:50;6.10;;;2.20;;
68250;SDS011;55066;51.560;4.642;2022-12-07T07:26:17;8.90;;;1.90;;
68250;SDS011;55066;51.560;4.642;2022-12-07T07:28:45;11.43;;;1.60;;
68250;SDS011;55066;51.560;4.642;2022-12-07T07:31:14;7.75;;;1.85;;
68250;SDS011;55066;51.560;4.642;2022-12-07T07:33:39;5.25;;;1.83;;
68250;SDS011;55066;51.560;4.642;2022-12-07T07:36:07;6.73;;;1.57;;
68250;SDS011;55066;51.560;4.642;2022-12-07T07:38:36;6.60;;;1.55;;
68250;SDS011;55066;51.560;4.642;2022-12-07T07:41:02;10.98;;;1.60;;
68250;SDS011;55066;51.560;4.642;2022-12-07T07:43:30;4.70;;;1.57;;
68250;SDS011;55066;51.560;4.642;2022-12-07T07:45:55;11.77;;;1.80;;
68250;SDS011;55066;51.560;4.642;2022-12-07T07:48:21;4.77;;;1.90;;
68250;SDS011;55066;51.560;4.642;2022-12-07T07:50:47;9.85;;;1.65;;
68250;SDS011;55066;51.560;4.642;2022-12-07T07:53:16;6.80;;;2.10;;
68250;SDS011;55066;51.560;4.642;2022-12-07T07:55:51;6.63;;;2.00;;
68250;SDS011;55066;51.560;4.642;2022-12-07T07:58:20;7.57;;;1.77;;
68250;SDS011;55066;51.560;4.642;2022-12-07T08:00:46;6.07;;;1.50;;
68250;SDS011;55066;51.560;4.642;2022-12-07T08:03:11;6.23;;;1.60;;
68250;SDS011;55066;51.560;4.642;2022-12-07T08:05:37;9.23;;;1.70;;
68250;SDS011;55066;51.560;4.642;2022-12-07T08:08:03;5.97;;;1.67;;
68250;SDS011;55066;51.560;4.642;2022-12-07T08:10:29;9.73;;;1.90;;
68250;SDS011;55066;51.560;4.642;2022-12-07T08:13:00;6.82;;;1.73;;
68250;SDS011;55066;51.560;4.642;2022-12-07T08:15:44;7.20;;;1.70;;
68250;SDS011;55066;51.560;4.642;2022-12-07T08:18:12;8.15;;;1.92;;
68250;SDS011;55066;51.560;4.642;2022-12-07T08:20:41;6.05;;;1.80;;
68250;SDS011;55066;51.560;4.642;2022-12-07T08:23:07;14.43;;;2.22;;
68250;SDS011;55066;51.560;4.642;2022-12-07T08:25:33;8.10;;;2.80;;
68250;SDS011;55066;51.560;4.642;2022-12-07T08:27:59;15.90;;;2.27;;
68250;SDS011;55066;51.560;4.642;2022-12-07T08:30:34;8.13;;;2.08;;
68250;SDS011;55066;51.560;4.642;2022-12-07T08:32:59;12.57;;;2.20;;
68250;SDS011;55066;51.560;4.642;2022-12-07T08:35:25;8.00;;;2.50;;
68250;SDS011;55066;51.560;4.642;2022-12-07T08:37:57;6.70;;;2.00;;
68250;SDS011;55066;51.560;4.642;2022-12-07T08:40:23;8.45;;;2.25;;
68250;SDS011;55066;51.560;4.642;2022-12-07T08:42:49;13.40;;;2.80;;
68250;SDS011;55066;51.560;4.642;2022-12-07T08:45:15;9.88;;;2.30;;
68250;SDS011;55066;51.560;4.642;2022-12-07T08:48:02;10.52;;;2.80;;
68250;SDS011;55066;51.560;4.642;2022-12-07T08:50:35;10.73;;;3.05;;
68250;SDS011;55066;51.560;4.642;2022-12-07T08:53:02;13.45;;;2.72;;
68250;SDS011;55066;51.560;4.642;2022-12-07T08:55:29;10.27;;;2.80;;
68250;SDS011;55066;51.560;4.642;2022-12-07T08:57:57;9.60;;;2.50;;
68250;SDS011;55066;51.560;4.642;2022-12-07T09:00:23;11.73;;;2.83;;
68250;SDS011;55066;51.560;4.642;2022-12-07T09:02:53;12.68;;;3.17;;
68250;SDS011;55066;51.560;4.642;2022-12-07T09:05:18;8.50;;;3.00;;
68250;SDS011;55066;51.560;4.642;2022-12-07T09:07:44;12.77;;;3.60;;
68250;SDS011;55066;51.560;4.642;2022-12-07T09:10:13;10.38;;;3.60;;
68250;SDS011;55066;51.560;4.642;2022-12-07T09:12:38;12.50;;;3.90;;
68250;SDS011;55066;51.560;4.642;2022-12-07T09:15:04;17.40;;;5.10;;
68250;SDS011;55066;51.560;4.642;2022-12-07T09:17:31;16.95;;;3.92;;
68250;SDS011;55066;51.560;4.642;2022-12-07T09:19:58;11.52;;;2.67;;
68250;SDS011;55066;51.560;4.642;2022-12-07T09:22:29;19.80;;;2.55;;
68250;SDS011;55066;51.560;4.642;2022-12-07T09:24:57;13.68;;;2.92;;
68250;SDS011;55066;51.560;4.642;2022-12-07T09:27:23;14.50;;;3.10;;
68250;SDS011;55066;51.560;4.642;2022-12-07T09:29:49;16.25;;;2.50;;
68250;SDS011;55066;51.560;4.642;2022-12-07T09:32:17;16.23;;;3.20;;
68250;SDS011;55066;51.560;4.642;2022-12-07T09:34:43;14.77;;;2.97;;
68250;SDS011;55066;51.560;4.642;2022-12-07T09:37:08;11.57;;;2.90;;
68250;SDS011;55066;51.560;4.642;2022-12-07T09:39:34;14.70;;;2.90;;
68250;SDS011;55066;51.560;4.642;2022-12-07T09:41:59;16.10;;;3.30;;
68250;SDS011;55066;51.560;4.642;2022-12-07T09:44:28;16.80;;;3.30;;
68250;SDS011;55066;51.560;4.642;2022-12-07T09:46:54;11.17;;;2.80;;
68250;SDS011;55066;51.560;4.642;2022-12-07T09:49:22;10.73;;;2.95;;
68250;SDS011;55066;51.560;4.642;2022-12-07T09:51:59;7.80;;;2.58;;
68250;SDS011;55066;51.560;4.642;2022-12-07T09:54:29;19.60;;;3.17;;
68250;SDS011;55066;51.560;4.642;2022-12-07T09:56:58;19.65;;;3.50;;
68250;SDS011;55066;51.560;4.642;2022-12-07T09:59:27;11.13;;;3.73;;
68250;SDS011;55066;51.560;4.642;2022-12-07T10:01:52;12.05;;;3.70;;
68250;SDS011;55066;51.560;4.642;2022-12-07T10:04:19;14.67;;;4.80;;
68250;SDS011;55066;51.560;4.642;2022-12-07T10:06:47;17.45;;;5.22;;
68250;SDS011;55066;51.560;4.642;2022-12-07T10:09:14;17.60;;;5.97;;
68250;SDS011;55066;51.560;4.642;2022-12-07T10:14:25;23.00;;;6.20;;
68250;SDS011;55066;51.560;4.642;2022-12-07T10:16:54;21.98;;;6.07;;
68250;SDS011;55066;51.560;4.642;2022-12-07T10:19:30;18.30;;;5.30;;
68250;SDS011;55066;51.560;4.642;2022-12-07T10:22:01;23.40;;;5.93;;
68250;SDS011;55066;51.560;4.642;2022-12-07T10:24:27;17.08;;;4.50;;
68250;SDS011;55066;51.560;4.642;2022-12-07T10:26:53;19.00;;;5.10;;
68250;SDS011;55066;51.560;4.642;2022-12-07T10:29:35;14.90;;;4.65;;
68250;SDS011;55066;51.560;4.642;2022-12-07T10:34:42;18.43;;;4.60;;
68250;SDS011;55066;51.560;4.642;2022-12-07T10:42:22;18.02;;;3.90;;
68250;SDS011;55066;51.560;4.642;2022-12-07T10:44:50;13.73;;;3.90;;
68250;SDS011;55066;51.560;4.642;2022-12-07T10:47:36;14.20;;;3.25;;
68250;SDS011;55066;51.560;4.642;2022-12-07T10:53:20;9.02;;;2.80;;
68250;SDS011;55066;51.560;4.642;2022-12-07T10:56:28;7.68;;;3.05;;
68250;SDS011;55066;51.560;4.642;2022-12-07T11:02:13;14.50;;;2.47;;
68250;SDS011;55066;51.560;4.642;2022-12-07T11:10:22;8.60;;;1.95;;
68250;SDS011;55066;51.560;4.642;2022-12-07T11:16:28;9.95;;;2.63;;
68250;SDS011;55066;51.560;4.642;2022-12-07T11:22:36;9.00;;;2.60;;
68250;SDS011;55066;51.560;4.642;2022-12-07T11:25:52;8.23;;;2.13;;
68250;SDS011;55066;51.560;4.642;2022-12-07T11:28:14;5.43;;;2.10;;
68250;SDS011;55066;51.560;4.642;2022-12-07T11:36:29;8.25;;;1.80;;
68250;SDS011;55066;51.560;4.642;2022-12-07T11:38:57;7.70;;;2.40;;
68250;SDS011;55066;51.560;4.642;2022-12-07T11:41:31;9.43;;;2.17;;
68250;SDS011;55066;51.560;4.642;2022-12-07T11:44:07;6.97;;;2.40;;
68250;SDS011;55066;51.560;4.642;2022-12-07T11:46:49;8.95;;;2.60;;
68250;SDS011;55066;51.560;4.642;2022-12-07T11:52:26;10.57;;;2.60;;
68250;SDS011;55066;51.560;4.642;2022-12-07T11:55:06;8.77;;;2.80;;
68250;SDS011;55066;51.560;4.642;2022-12-07T11:57:45;8.63;;;2.55;;
68250;SDS011;55066;51.560;4.642;2022-12-07T12:00:19;12.30;;;4.05;;
68250;SDS011;55066;51.560;4.642;2022-12-07T12:02:52;14.93;;;4.32;;
68250;SDS011;55066;51.560;4.642;2022-12-07T12:05:21;13.63;;;4.35;;
68250;SDS011;55066;51.560;4.642;2022-12-07T12:07:51;24.93;;;4.30;;
68250;SDS011;55066;51.560;4.642;2022-12-07T12:13:27;21.60;;;4.85;;
68250;SDS011;55066;51.560;4.642;2022-12-07T12:16:02;8.95;;;1.95;;
68250;SDS011;55066;51.560;4.642;2022-12-07T12:21:16;8.30;;;2.47;;
68250;SDS011;55066;51.560;4.642;2022-12-07T12:23:56;11.50;;;2.75;;
68250;SDS011;55066;51.560;4.642;2022-12-07T12:26:23;8.85;;;1.90;;
68250;SDS011;55066;51.560;4.642;2022-12-07T12:28:58;9.57;;;2.38;;
68250;SDS011;55066;51.560;4.642;2022-12-07T12:33:56;8.63;;;2.73;;
68250;SDS011;55066;51.560;4.642;2022-12-07T12:36:42;10.93;;;2.70;;
68250;SDS011;55066;51.560;4.642;2022-12-07T12:39:11;7.82;;;2.70;;
68250;SDS011;55066;51.560;4.642;2022-12-07T12:46:55;11.82;;;3.05;;
68250;SDS011;55066;51.560;4.642;2022-12-07T12:54:58;8.77;;;2.28;;
68250;SDS011;55066;51.560;4.642;2022-12-07T12:57:33;4.63;;;2.00;;
68250;SDS011;55066;51.560;4.642;2022-12-07T12:59:59;5.80;;;1.80;;
68250;SDS011;55066;51.560;4.642;2022-12-07T13:05:00;9.27;;;2.20;;
68250;SDS011;55066;51.560;4.642;2022-12-07T13:13:02;5.90;;;2.00;;
68250;SDS011;55066;51.560;4.642;2022-12-07T13:15:41;6.90;;;2.13;;
68250;SDS011;55066;51.560;4.642;2022-12-07T13:20:57;4.35;;;0.98;;
68250;SDS011;55066;51.560;4.642;2022-12-07T13:23:31;8.60;;;1.17;;
68250;SDS011;55066;51.560;4.642;2022-12-07T13:28:50;11.50;;;2.03;;
68250;SDS011;55066;51.560;4.642;2022-12-07T13:31:28;6.95;;;1.80;;
68250;SDS011;55066;51.560;4.642;2022-12-07T13:34:00;6.75;;;1.63;;
68250;SDS011;55066;51.560;4.642;2022-12-07T13:36:32;12.90;;;1.40;;
68250;SDS011;55066;51.560;4.642;2022-12-07T13:39:16;7.97;;;1.20;;
68250;SDS011;55066;51.560;4.642;2022-12-07T13:41:44;6.38;;;1.58;;
68250;SDS011;55066;51.560;4.642;2022-12-07T13:44:15;6.40;;;1.35;;
68250;SDS011;55066;51.560;4.642;2022-12-07T13:49:21;6.40;;;1.40;;
68250;SDS011;55066;51.560;4.642;2022-12-07T13:51:49;3.63;;;1.13;;
68250;SDS011;55066;51.560;4.642;2022-12-07T13:54:15;7.68;;;1.30;;
68250;SDS011;55066;51.560;4.642;2022-12-07T13:56:41;4.40;;;1.05;;
68250;SDS011;55066;51.560;4.642;2022-12-07T13:59:20;5.72;;;0.95;;
68250;SDS011;55066;51.560;4.642;2022-12-07T14:01:48;4.87;;;1.37;;
68250;SDS011;55066;51.560;4.642;2022-12-07T14:04:28;5.30;;;1.52;;
68250;SDS011;55066;51.560;4.642;2022-12-07T14:06:56;6.43;;;1.27;;
68250;SDS011;55066;51.560;4.642;2022-12-07T14:09:23;5.35;;;1.35;;
68250;SDS011;55066;51.560;4.642;2022-12-07T14:11:51;10.75;;;1.75;;
68250;SDS011;55066;51.560;4.642;2022-12-07T14:14:20;6.43;;;1.52;;
68250;SDS011;55066;51.560;4.642;2022-12-07T14:16:58;9.10;;;1.70;;
68250;SDS011;55066;51.560;4.642;2022-12-07T14:19:44;9.65;;;1.65;;
68250;SDS011;55066;51.560;4.642;2022-12-07T14:22:54;6.97;;;1.40;;
68250;SDS011;55066;51.560;4.642;2022-12-07T14:27:38;13.77;;;2.28;;
68250;SDS011;55066;51.560;4.642;2022-12-07T14:30:05;6.43;;;2.17;;
68250;SDS011;55066;51.560;4.642;2022-12-07T14:32:34;6.35;;;2.65;;
68250;SDS011;55066;51.560;4.642;2022-12-07T14:35:12;8.00;;;2.63;;
68250;SDS011;55066;51.560;4.642;2022-12-07T14:37:42;13.00;;;2.28;;
68250;SDS011;55066;51.560;4.642;2022-12-07T14:40:12;8.82;;;2.25;;
68250;SDS011;55066;51.560;4.642;2022-12-07T14:42:39;9.63;;;2.00;;
68250;SDS011;55066;51.560;4.642;2022-12-07T14:45:05;8.80;;;2.00;;
68250;SDS011;55066;51.560;4.642;2022-12-07T14:47:40;8.60;;;2.15;;
68250;SDS011;55066;51.560;4.642;2022-12-07T14:50:05;6.30;;;1.80;;
68250;SDS011;55066;51.560;4.642;2022-12-07T14:52:31;7.28;;;2.17;;
68250;SDS011;55066;51.560;4.642;2022-12-07T14:54:58;5.60;;;2.00;;
68250;SDS011;55066;51.560;4.642;2022-12-07T14:57:26;4.70;;;2.08;;
68250;SDS011;55066;51.560;4.642;2022-12-07T14:59:51;6.80;;;2.00;;
68250;SDS011;55066;51.560;4.642;2022-12-07T15:02:16;9.07;;;2.37;;
68250;SDS011;55066;51.560;4.642;2022-12-07T15:04:42;7.83;;;2.30;;
68250;SDS011;55066;51.560;4.642;2022-12-07T15:07:20;7.30;;;2.53;;
68250;SDS011;55066;51.560;4.642;2022-12-07T15:09:47;11.43;;;3.37;;
68250;SDS011;55066;51.560;4.642;2022-12-07T15:12:13;10.77;;;2.67;;
68250;SDS011;55066;51.560;4.642;2022-12-07T15:14:45;10.60;;;2.90;;
68250;SDS011;55066;51.560;4.642;2022-12-07T15:17:13;9.48;;;2.63;;
68250;SDS011;55066;51.560;4.642;2022-12-07T15:19:48;9.35;;;2.50;;
68250;SDS011;55066;51.560;4.642;2022-12-07T15:22:35;11.00;;;2.78;;
68250;SDS011;55066;51.560;4.642;2022-12-07T15:25:22;10.30;;;2.83;;
68250;SDS011;55066;51.560;4.642;2022-12-07T15:27:47;9.00;;;2.92;;
68250;SDS011;55066;51.560;4.642;2022-12-07T15:30:15;9.77;;;3.00;;
68250;SDS011;55066;51.560;4.642;2022-12-07T15:33:02;12.90;;;2.92;;
68250;SDS011;55066;51.560;4.642;2022-12-07T15:35:30;11.32;;;3.28;;
68250;SDS011;55066;51.560;4.642;2022-12-07T15:38:16;11.52;;;4.05;;
68250;SDS011;55066;51.560;4.642;2022-12-07T15:41:00;10.97;;;4.27;;
68250;SDS011;55066;51.560;4.642;2022-12-07T15:43:28;13.48;;;4.25;;
68250;SDS011;55066;51.560;4.642;2022-12-07T15:46:54;10.63;;;3.30;;
68250;SDS011;55066;51.560;4.642;2022-12-07T15:49:34;10.80;;;3.40;;
68250;SDS011;55066;51.560;4.642;2022-12-07T15:52:07;9.95;;;3.38;;
68250;SDS011;55066;51.560;4.642;2022-12-07T15:55:04;8.80;;;3.20;;
68250;SDS011;55066;51.560;4.642;2022-12-07T15:57:51;10.38;;;3.25;;
68250;SDS011;55066;51.560;4.642;2022-12-07T16:00:26;10.15;;;3.20;;
68250;SDS011;55066;51.560;4.642;2022-12-07T16:03:03;11.77;;;3.28;;
68250;SDS011;55066;51.560;4.642;2022-12-07T16:05:33;7.93;;;1.80;;
68250;SDS011;55066;51.560;4.642;2022-12-07T16:08:02;6.83;;;1.40;;
68250;SDS011;55066;51.560;4.642;2022-12-07T16:10:33;6.32;;;1.88;;
68250;SDS011;55066;51.560;4.642;2022-12-07T16:13:01;13.55;;;2.22;;
68250;SDS011;55066;51.560;4.642;2022-12-07T16:15:27;6.03;;;1.80;;
68250;SDS011;55066;51.560;4.642;2022-12-07T16:17:52;7.27;;;1.87;;
68250;SDS011;55066;51.560;4.642;2022-12-07T16:20:20;5.88;;;1.88;;
68250;SDS011;55066;51.560;4.642;2022-12-07T16:22:46;10.90;;;2.10;;
68250;SDS011;55066;51.560;4.642;2022-12-07T16:25:11;5.05;;;2.08;;
68250;SDS011;55066;51.560;4.642;2022-12-07T16:27:37;5.45;;;2.28;;
68250;SDS011;55066;51.560;4.642;2022-12-07T16:30:02;7.53;;;2.60;;
68250;SDS011;55066;51.560;4.642;2022-12-07T16:32:28;6.13;;;2.47;;
68250;SDS011;55066;51.560;4.642;2022-12-07T16:34:53;8.50;;;2.93;;
68250;SDS011;55066;51.560;4.642;2022-12-07T16:37:19;13.03;;;3.00;;
68250;SDS011;55066;51.560;4.642;2022-12-07T16:39:44;11.93;;;3.50;;
68250;SDS011;55066;51.560;4.642;2022-12-07T16:42:10;8.98;;;3.53;;
68250;SDS011;55066;51.560;4.642;2022-12-07T16:44:38;10.47;;;3.30;;
68250;SDS011;55066;51.560;4.642;2022-12-07T16:47:10;14.25;;;4.20;;
68250;SDS011;55066;51.560;4.642;2022-12-07T16:49:35;13.10;;;4.33;;
68250;SDS011;55066;51.560;4.642;2022-12-07T16:52:01;11.30;;;4.03;;
68250;SDS011;55066;51.560;4.642;2022-12-07T16:54:26;12.50;;;4.40;;
68250;SDS011;55066;51.560;4.642;2022-12-07T16:56:55;8.13;;;3.97;;